Hailar, China
Current Conditions -  °F | °C
As of 3:30 PM on Wednesday 26 Nov 2014 (Local Time) from UIAA Reporting Station
Few Clouds Few Clouds  
Wind Chill: -13°   Ceiling: Unl
Heat Index:   Visibility: 6mi
Dew Point: -15°   Wind: 20mph
Humidity: 37%   Direction: 270°W
Pressure: 29.68"   Gusts: 36mph
Location:  49.23°N, 119.71°E
Report Text: UIAA 260730Z 27009G16MPS 9999 FEW050 M14/M26 Q1005 TEMPO27010G20MPS RMK QFE696 29CLRD70
Loading
Personal Weather Stations






























Interactive Weather Map New forecast layout! Learn more

10-Day Weather Forecast

Advertisements
Track Severe Weather on mobile